Time;durP1;ratioP1;P1;durP2;ratioP2;P2;SDS_P1;SDS_P2;PMS_P1;PMS_P2;Temp;Humidity;BMP_temperature;BMP_pressure;BME280_temperature;BME280_humidity;BME280_pressure;Samples;Min_cycle;Max_cycle;Signal;HPM_P1;HPM_P2
2022/12/19 00:00:15;;;;;;;15.17;13.57;;;;;20.50;100936.00;;;;2062751;28;20285;-51
2022/12/19 00:01:27;;;;;;;15.57;13.90;;;;;20.60;100928.00;;;;2062585;28;20233;-52
2022/12/19 00:02:27;;;;;;;16.13;14.43;;;;;20.60;100932.00;;;;2061582;28;20230;-51
2022/12/19 00:03:28;;;;;;;15.73;14.03;;;;;20.60;100930.00;;;;2062171;28;20223;-52
2022/12/19 00:04:28;;;;;;;15.37;13.73;;;;;20.60;100916.00;;;;2062251;28;20253;-52
2022/12/19 00:05:28;;;;;;;15.47;13.77;;;;;20.60;100927.00;;;;2062117;28;20229;-51
2022/12/19 00:06:29;;;;;;;15.77;14.10;;;;;20.50;100925.00;;;;2062441;28;20568;-52
2022/12/19 00:07:29;;;;;;;15.93;14.23;;;;;20.60;100932.00;;;;2062372;28;20229;-51
2022/12/19 00:08:31;;;;;;;15.70;14.10;;;;;20.50;100920.00;;;;2062663;28;20322;-50
2022/12/19 00:09:31;;;;;;;16.05;13.82;;;;;20.50;100917.00;;;;2070647;28;20217;-50
2022/12/19 00:10:32;;;;;;;15.60;13.40;;;;;20.50;100912.00;;;;2068107;28;20215;-50
2022/12/19 00:11:32;;;;;;;15.30;13.70;;;;;20.50;100911.00;;;;2062783;28;20218;-52
2022/12/19 00:12:33;;;;;;;14.60;13.10;;;;;20.50;100907.00;;;;2061615;28;20563;-52
2022/12/19 00:13:33;;;;;;;15.20;13.33;;;;;20.50;100895.00;;;;2062362;28;20219;-52
2022/12/19 00:14:33;;;;;;;14.00;12.50;;;;;20.50;100906.00;;;;2062604;28;20687;-51
2022/12/19 00:15:34;;;;;;;14.67;13.10;;;;;20.50;100900.00;;;;2062262;28;20298;-51
2022/12/19 00:16:34;;;;;;;14.80;13.20;;;;;20.50;100906.00;;;;2062565;28;20238;-52
2022/12/19 00:17:35;;;;;;;14.70;13.20;;;;;20.50;100907.00;;;;2062741;28;20215;-52
2022/12/19 00:18:35;;;;;;;14.57;13.07;;;;;20.50;100900.00;;;;2062413;28;20249;-52
2022/12/19 00:19:35;;;;;;;14.47;12.90;;;;;20.50;100907.00;;;;2062599;28;20215;-52
2022/12/19 00:20:36;;;;;;;14.50;13.00;;;;;20.50;100911.00;;;;2062444;28;20288;-53
2022/12/19 00:21:36;;;;;;;14.63;13.10;;;;;20.50;100909.00;;;;2062780;28;20242;-52
2022/12/19 00:22:36;;;;;;;14.73;12.80;;;;;20.40;100905.00;;;;2061501;28;20218;-51
2022/12/19 00:23:37;;;;;;;14.83;13.33;;;;;20.50;100908.00;;;;2061605;28;20233;-52
2022/12/19 00:24:37;;;;;;;13.97;12.60;;;;;20.30;100903.00;;;;2062177;28;20586;-52
2022/12/19 00:25:37;;;;;;;13.13;11.83;;;;;20.40;100901.00;;;;2062805;28;20207;-50
2022/12/19 00:26:38;;;;;;;13.17;11.77;;;;;20.40;100899.00;;;;2062951;28;20226;-51
2022/12/19 00:27:39;;;;;;;12.73;11.43;;;;;20.40;100901.00;;;;2062571;28;20215;-51
2022/12/19 00:28:40;;;;;;;14.80;12.47;;;;;20.40;100895.00;;;;2062006;28;20455;-55
2022/12/19 00:29:40;;;;;;;13.57;12.18;;;;;20.40;100896.00;;;;2053810;28;20212;-51
2022/12/19 00:30:41;;;;;;;13.90;12.40;;;;;20.40;100905.00;;;;2053297;28;20216;-52
2022/12/19 00:31:41;;;;;;;12.60;11.30;;;;;20.40;100905.00;;;;2059484;28;20211;-53
2022/12/19 00:32:41;;;;;;;13.77;12.30;;;;;20.40;100905.00;;;;2054376;28;20216;-53
2022/12/19 00:33:42;;;;;;;13.90;12.07;;;;;20.40;100905.00;;;;2062172;28;20207;-52
2022/12/19 00:34:42;;;;;;;13.80;12.10;;;;;20.40;100906.00;;;;2053820;28;20204;-51
2022/12/19 00:35:42;;;;;;;12.97;11.33;;;;;20.40;100907.00;;;;2053906;28;20306;-50
2022/12/19 00:36:43;;;;;;;12.70;11.50;;;;;20.40;100904.00;;;;2062288;28;20228;-51
2022/12/19 00:37:43;;;;;;;13.30;11.77;;;;;20.40;100903.00;;;;2062383;28;20215;-51
2022/12/19 00:38:44;;;;;;;14.97;12.80;;;;;20.30;100904.00;;;;2062481;28;20254;-50
2022/12/19 00:39:44;;;;;;;14.07;12.52;;;;;20.30;100904.00;;;;2062386;28;20755;-53
2022/12/19 00:40:45;;;;;;;12.97;11.57;;;;;20.30;100903.00;;;;2068951;28;20217;-53
2022/12/19 00:41:45;;;;;;;12.60;11.30;;;;;20.30;100899.00;;;;2062830;28;20211;-53
2022/12/19 00:42:45;;;;;;;13.60;12.23;;;;;20.30;100893.00;;;;2066418;28;20207;-52
2022/12/19 00:43:46;;;;;;;13.13;11.73;;;;;20.30;100898.00;;;;2070582;28;20214;-51
2022/12/19 00:44:46;;;;;;;12.67;11.33;;;;;20.30;100892.00;;;;2070588;28;20350;-52
2022/12/19 00:45:47;;;;;;;12.20;10.90;;;;;20.30;100892.00;;;;2063667;28;20310;-51
2022/12/19 00:46:47;;;;;;;12.70;11.40;;;;;20.30;100892.00;;;;2062709;28;20211;-52
2022/12/19 00:47:47;;;;;;;13.87;12.10;;;;;20.30;100887.00;;;;2062926;28;20207;-52
2022/12/19 00:48:48;;;;;;;12.07;10.87;;;;;20.30;100874.00;;;;2062643;28;20211;-51
2022/12/19 00:49:49;;;;;;;12.93;11.63;;;;;20.30;100877.00;;;;2062696;28;20257;-50
2022/12/19 00:50:57;;;;;;;13.02;11.25;;;;;20.30;100877.00;;;;2061940;28;20575;-50
2022/12/19 00:51:58;;;;;;;13.77;11.55;;;;;20.30;100870.00;;;;2061560;28;20210;-51
2022/12/19 00:52:59;;;;;;;12.63;11.27;;;;;20.20;100883.00;;;;2062720;28;20207;-52
2022/12/19 00:53:59;;;;;;;12.00;10.77;;;;;20.20;100880.00;;;;2062855;28;20234;-52
2022/12/19 00:55:00;;;;;;;12.40;11.00;;;;;20.20;100884.00;;;;2054795;28;20215;-52
2022/12/19 00:56:04;;;;;;;12.70;11.40;;;;;20.20;100890.00;;;;2055924;28;20937;-51
2022/12/19 00:57:04;;;;;;;12.70;10.85;;;;;20.20;100881.00;;;;2062226;28;20307;-52
2022/12/19 00:58:04;;;;;;;12.97;11.07;;;;;20.20;100879.00;;;;2062731;28;20663;-52
2022/12/19 00:59:05;;;;;;;12.10;10.90;;;;;20.20;100880.00;;;;2062188;28;20632;-53
2022/12/19 01:00:06;;;;;;;13.57;11.93;;;;;20.20;100880.00;;;;2062275;28;20647;-52
2022/12/19 01:01:12;;;;;;;11.40;10.18;;;;;20.30;100873.00;;;;2062069;28;20708;-52
2022/12/19 01:02:12;;;;;;;12.27;10.98;;;;;20.20;100865.00;;;;2057778;28;20245;-51
2022/12/19 01:03:13;;;;;;;12.13;10.80;;;;;20.20;100881.00;;;;2061548;28;20642;-50
2022/12/19 01:04:13;;;;;;;11.93;10.63;;;;;20.20;100872.00;;;;2069899;28;20677;-52
2022/12/19 01:05:14;;;;;;;11.90;10.37;;;;;20.20;100872.00;;;;2069890;28;20244;-53
2022/12/19 01:06:14;;;;;;;11.97;10.67;;;;;20.20;100872.00;;;;2070212;28;20312;-51
2022/12/19 01:07:15;;;;;;;12.60;11.30;;;;;20.20;100868.00;;;;2069586;28;20473;-54
2022/12/19 01:08:15;;;;;;;12.60;10.67;;;;;20.10;100876.00;;;;2070325;28;20590;-53
2022/12/19 01:09:16;;;;;;;11.70;10.50;;;;;20.20;100854.00;;;;2069717;28;20222;-54
2022/12/19 01:10:16;;;;;;;12.30;10.30;;;;;20.10;100867.00;;;;2061565;28;20221;-52
2022/12/19 01:11:16;;;;;;;12.93;11.43;;;;;20.20;100861.00;;;;2060960;28;20662;-52
2022/12/19 01:13:36;;;;;;;11.88;10.18;;;;;20.10;100864.00;;;;2068234;28;20226;-53
2022/12/19 01:14:36;;;;;;;11.75;10.50;;;;;20.20;100867.00;;;;2068562;28;20268;-52
2022/12/19 01:15:38;;;;;;;12.13;10.77;;;;;20.20;100866.00;;;;2061973;28;20591;-52
2022/12/19 01:16:38;;;;;;;13.73;10.65;;;;;20.10;100859.00;;;;2062135;28;20261;-52
2022/12/19 01:17:39;;;;;;;11.77;9.97;;;;;20.20;100859.00;;;;2061964;28;20222;-51
2022/12/19 01:18:39;;;;;;;13.37;11.00;;;;;20.10;100875.00;;;;2062100;28;20214;-51
2022/12/19 01:19:39;;;;;;;11.87;10.67;;;;;20.10;100889.00;;;;2061398;28;20217;-50
2022/12/19 01:20:40;;;;;;;11.80;10.60;;;;;20.10;100879.00;;;;2061516;28;20237;-50
2022/12/19 01:21:41;;;;;;;12.23;10.93;;;;;20.10;100886.00;;;;2061974;28;20211;-51
2022/12/19 01:22:42;;;;;;;13.30;11.40;;;;;20.10;100882.00;;;;2061032;28;20210;-54
2022/12/19 01:23:42;;;;;;;11.37;10.17;;;;;20.00;100869.00;;;;2061866;28;20900;-50
2022/12/19 01:24:42;;;;;;;11.37;10.17;;;;;20.10;100865.00;;;;2060840;28;20254;-52
2022/12/19 01:25:47;;;;;;;10.70;9.60;;;;;20.10;100869.00;;;;2061546;28;20215;-52
2022/12/19 01:26:48;;;;;;;11.85;10.30;;;;;20.10;100878.00;;;;2053729;28;20935;-51
2022/12/19 01:27:48;;;;;;;11.67;9.90;;;;;20.10;100865.00;;;;2052075;28;20734;-54
2022/12/19 01:28:48;;;;;;;12.40;10.53;;;;;20.10;100863.00;;;;2062015;28;20706;-54
2022/12/19 01:29:49;;;;;;;11.43;10.13;;;;;20.10;100866.00;;;;2061939;28;20671;-52
2022/12/19 01:30:49;;;;;;;11.27;10.17;;;;;20.00;100858.00;;;;2061844;28;20218;-52
2022/12/19 01:31:50;;;;;;;12.00;10.17;;;;;20.10;100851.00;;;;2061372;28;20624;-51
2022/12/19 01:32:50;;;;;;;9.90;8.90;;;;;20.00;100853.00;;;;2062367;28;20211;-51
2022/12/19 01:33:50;;;;;;;11.37;10.20;;;;;20.00;100859.00;;;;2062204;28;20234;-51
2022/12/19 01:34:51;;;;;;;11.27;10.10;;;;;20.00;100855.00;;;;2062410;28;20269;-50
2022/12/19 01:35:51;;;;;;;11.10;10.00;;;;;20.00;100856.00;;;;2061371;28;20206;-53
2022/12/19 01:36:51;;;;;;;11.23;10.03;;;;;20.00;100862.00;;;;2061874;28;20211;-53
2022/12/19 01:37:52;;;;;;;12.40;11.10;;;;;20.00;100856.00;;;;2061712;28;20217;-51
2022/12/19 01:38:56;;;;;;;10.57;9.47;;;;;20.00;100858.00;;;;2061687;28;20215;-50
2022/12/19 01:39:56;;;;;;;11.45;10.25;;;;;20.00;100864.00;;;;2065853;28;20215;-51
2022/12/19 01:40:56;;;;;;;11.10;10.00;;;;;20.00;100845.00;;;;2070396;28;20245;-51
2022/12/19 01:41:57;;;;;;;10.87;9.50;;;;;20.00;100854.00;;;;2063055;28;21123;-50
2022/12/19 01:42:57;;;;;;;10.03;8.97;;;;;20.00;100857.00;;;;2062070;28;20217;-52
2022/12/19 01:44:03;;;;;;;10.97;9.80;;;;;20.00;100849.00;;;;2061702;28;20270;-53
2022/12/19 01:45:16;;;;;;;10.98;9.77;;;;;20.00;100861.00;;;;2061865;28;20210;-51
2022/12/19 01:46:16;;;;;;;10.60;9.50;;;;;19.90;100847.00;;;;2058081;28;20238;-51
2022/12/19 01:47:17;;;;;;;11.40;10.13;;;;;19.90;100855.00;;;;2045403;28;20736;-51
2022/12/19 01:48:21;;;;;;;10.77;9.67;;;;;19.90;100851.00;;;;2053075;28;20550;-51
2022/12/19 01:49:30;;;;;;;11.30;10.07;;;;;19.90;100831.00;;;;2060451;28;20215;-53
2022/12/19 01:50:35;;;;;;;10.10;9.07;;;;;19.90;100838.00;;;;2062876;28;20211;-52
2022/12/19 01:51:43;;;;;;;10.50;9.40;;;;;20.00;100832.00;;;;2068976;28;20230;-53
2022/12/19 01:52:43;;;;;;;10.68;9.68;;;;;20.00;100827.00;;;;2052827;28;20219;-52
2022/12/19 01:53:47;;;;;;;10.10;9.10;;;;;19.90;100814.00;;;;2053197;28;20216;-51
2022/12/19 01:54:47;;;;;;;11.65;9.88;;;;;19.90;100812.00;;;;2057178;28;20253;-51
2022/12/19 01:55:47;;;;;;;10.07;9.07;;;;;19.90;100812.00;;;;2056111;28;20683;-52
2022/12/19 01:56:49;;;;;;;10.63;9.10;;;;;19.90;100816.00;;;;2062191;28;20769;-51
2022/12/19 01:57:50;;;;;;;10.95;9.85;;;;;19.90;100810.00;;;;2053765;28;20250;-50
2022/12/19 01:58:51;;;;;;;10.67;9.20;;;;;19.90;100810.00;;;;2058200;28;20670;-52
2022/12/19 01:59:53;;;;;;;9.27;8.07;;;;;20.00;100809.00;;;;2061158;28;20222;-50
2022/12/19 02:00:53;;;;;;;9.75;8.75;;;;;20.00;100799.00;;;;2052981;28;20219;-52
2022/12/19 02:01:57;;;;;;;11.00;9.93;;;;;19.90;100796.00;;;;2060190;28;20219;-52
2022/12/19 02:03:19;;;;;;;11.20;9.73;;;;;19.90;100798.00;;;;2053602;28;20271;-51
2022/12/19 02:04:19;;;;;;;11.20;10.10;;;;;19.90;100793.00;;;;2059248;28;20737;-51
2022/12/19 02:05:19;;;;;;;10.50;9.40;;;;;19.90;100804.00;;;;2061310;28;20231;-52
2022/12/19 02:06:20;;;;;;;10.40;9.30;;;;;19.90;100790.00;;;;2045162;28;21037;-51
2022/12/19 02:07:21;;;;;;;11.50;10.00;;;;;19.80;100790.00;;;;2053244;28;20246;-52
2022/12/19 02:08:21;;;;;;;10.15;9.15;;;;;19.80;100789.00;;;;2053574;28;21032;-52
2022/12/19 02:09:22;;;;;;;9.57;8.57;;;;;19.80;100779.00;;;;2053250;28;20224;-52
2022/12/19 02:10:22;;;;;;;10.93;9.83;;;;;19.80;100778.00;;;;2061171;28;20222;-51
2022/12/19 02:11:22;;;;;;;10.20;8.50;;;;;19.90;100776.00;;;;2070104;28;20309;-51
2022/12/19 02:12:24;;;;;;;10.70;9.60;;;;;19.80;100770.00;;;;2069336;28;20686;-51
2022/12/19 02:13:25;;;;;;;9.63;8.63;;;;;19.80;100759.00;;;;2061583;28;20281;-51
2022/12/19 02:14:25;;;;;;;10.37;9.13;;;;;19.90;100761.00;;;;2053001;28;20731;-54
2022/12/19 02:15:26;;;;;;;9.60;8.60;;;;;19.80;100749.00;;;;2045235;29;20219;-54
2022/12/19 02:17:11;;;;;;;10.33;9.23;;;;;19.80;100747.00;;;;2041321;28;20284;-52
2022/12/19 02:18:22;;;;;;;10.63;8.85;;;;;19.80;100748.00;;;;2056157;28;20214;-51
2022/12/19 02:19:29;;;;;;;10.30;9.30;;;;;19.80;100740.00;;;;2061615;28;20266;-51
2022/12/19 02:21:03;;;;;;;11.85;10.18;;;;;19.80;100739.00;;;;2054924;28;20733;-52
2022/12/19 02:22:09;;;;;;;10.65;9.13;;;;;19.80;100730.00;;;;2058022;28;20211;-52
2022/12/19 02:24:03;;;;;;;9.45;8.45;;;;;19.80;100727.00;;;;2063899;28;20294;-51
2022/12/19 02:25:12;;;;;;;9.80;8.80;;;;;19.80;100722.00;;;;2035458;29;20246;-52
2022/12/19 02:26:31;;;;;;;10.90;9.32;;;;;19.80;100728.00;;;;2038480;29;20268;-51
2022/12/19 02:27:39;;;;;;;12.20;10.00;;;;;19.80;100722.00;;;;2051306;28;20302;-51
2022/12/19 02:29:01;;;;;;;10.00;8.80;;;;;19.70;100720.00;;;;2049435;28;20217;-52
2022/12/19 02:30:13;;;;;;;9.32;8.38;;;;;19.80;100720.00;;;;2051782;28;20215;-52
2022/12/19 02:31:30;;;;;;;9.35;8.45;;;;;19.80;100710.00;;;;2044141;28;20217;-51
2022/12/19 02:32:42;;;;;;;9.65;8.65;;;;;19.80;100709.00;;;;2058825;28;20709;-52
2022/12/19 02:34:14;;;;;;;11.77;8.68;;;;;19.70;100699.00;;;;2063770;28;20211;-51
2022/12/19 02:35:31;;;;;;;10.35;9.23;;;;;19.80;100712.00;;;;2060966;28;20603;-52
2022/12/19 02:36:38;;;;;;;9.82;8.85;;;;;19.80;100712.00;;;;2058911;28;20231;-50
2022/12/19 02:37:48;;;;;;;10.15;8.25;;;;;19.80;100724.00;;;;2054647;28;20215;-52
2022/12/19 02:39:08;;;;;;;8.98;8.07;;;;;19.70;100715.00;;;;2049831;28;21609;-52
2022/12/19 02:40:22;;;;;;;9.88;8.88;;;;;19.70;100713.00;;;;2057242;28;20218;-54
2022/12/19 02:41:26;;;;;;;9.43;8.43;;;;;19.80;100706.00;;;;2056608;28;20210;-50
2022/12/19 02:42:31;;;;;;;9.98;8.98;;;;;19.70;100704.00;;;;2054065;28;20239;-53
2022/12/19 02:43:34;;;;;;;10.00;8.88;;;;;19.70;100709.00;;;;2055003;28;20220;-52
2022/12/19 02:44:40;;;;;;;10.82;8.85;;;;;19.70;100707.00;;;;2055214;28;20350;-51
2022/12/19 02:45:41;;;;;;;10.43;8.77;;;;;19.70;100711.00;;;;2054829;28;20262;-51
2022/12/19 02:46:41;;;;;;;9.63;8.63;;;;;19.70;100712.00;;;;2055035;28;20212;-52
2022/12/19 02:47:42;;;;;;;11.47;8.70;;;;;19.70;100706.00;;;;2054322;28;20219;-50
2022/12/19 02:48:42;;;;;;;9.00;8.10;;;;;19.70;100709.00;;;;2054818;28;20521;-51
2022/12/19 02:49:42;;;;;;;9.20;7.70;;;;;19.70;100703.00;;;;2062875;28;20946;-51
2022/12/19 02:50:43;;;;;;;8.80;7.90;;;;;19.70;100703.00;;;;2062763;28;20656;-50
2022/12/19 02:51:44;;;;;;;9.00;8.10;;;;;19.70;100710.00;;;;2062137;28;20653;-51
2022/12/19 02:52:45;;;;;;;8.87;7.97;;;;;19.70;100696.00;;;;2061729;28;20250;-52
2022/12/19 02:53:45;;;;;;;9.73;8.73;;;;;19.70;100694.00;;;;2063094;28;20353;-51
2022/12/19 02:54:49;;;;;;;10.63;8.90;;;;;19.70;100698.00;;;;2063434;28;20215;-53
2022/12/19 02:56:06;;;;;;;9.68;8.68;;;;;19.70;100697.00;;;;2055711;28;20212;-51
2022/12/19 02:57:06;;;;;;;10.80;8.55;;;;;19.60;100684.00;;;;2054800;28;20319;-51
2022/12/19 02:58:15;;;;;;;9.60;8.60;;;;;19.70;100683.00;;;;2063599;28;20211;-52
2022/12/19 02:59:42;;;;;;;9.40;8.48;;;;;19.60;100683.00;;;;2062588;28;20802;-52
2022/12/19 03:00:59;;;;;;;9.13;8.05;;;;;19.70;100678.00;;;;2050008;28;20231;-51
2022/12/19 03:02:13;;;;;;;8.80;7.82;;;;;19.70;100668.00;;;;2058999;28;20219;-51
2022/12/19 03:03:36;;;;;;;8.85;7.75;;;;;19.60;100682.00;;;;2053104;28;20255;-52
2022/12/19 03:05:00;;;;;;;9.02;7.95;;;;;19.60;100681.00;;;;2062173;28;20310;-52
2022/12/19 03:06:11;;;;;;;9.32;8.43;;;;;19.60;100673.00;;;;2058410;28;20674;-50
2022/12/19 03:07:34;;;;;;;9.75;8.75;;;;;19.60;100682.00;;;;2047399;28;20712;-51
2022/12/19 03:08:42;;;;;;;9.93;8.90;;;;;19.60;100703.00;;;;2049041;28;20226;-51
2022/12/19 03:10:02;;;;;;;9.95;8.70;;;;;19.60;100696.00;;;;2047640;28;20668;-51
2022/12/19 03:11:05;;;;;;;9.43;8.43;;;;;19.60;100686.00;;;;2055273;28;20265;-52
2022/12/19 03:12:08;;;;;;;9.05;8.00;;;;;19.60;100688.00;;;;2061105;28;20223;-52
2022/12/19 03:13:30;;;;;;;9.02;8.10;;;;;19.60;100685.00;;;;2059260;28;20479;-52
2022/12/19 03:14:31;;;;;;;8.85;7.93;;;;;19.60;100687.00;;;;2060853;28;20242;-52
2022/12/19 03:15:31;;;;;;;8.60;7.57;;;;;19.60;100692.00;;;;2057206;28;20219;-51
2022/12/19 03:16:35;;;;;;;9.43;8.43;;;;;19.60;100693.00;;;;2054340;28;20219;-51
2022/12/19 03:17:35;;;;;;;9.27;8.38;;;;;19.60;100698.00;;;;2054655;28;20230;-51
2022/12/19 03:18:36;;;;;;;8.90;8.00;;;;;19.60;100691.00;;;;2062114;28;20225;-52
2022/12/19 03:19:37;;;;;;;8.53;7.73;;;;;19.50;100691.00;;;;2071142;28;20222;-52
2022/12/19 03:20:53;;;;;;;8.23;7.40;;;;;19.60;100683.00;;;;2062683;28;20246;-52
2022/12/19 03:21:53;;;;;;;9.40;8.40;;;;;19.60;100693.00;;;;2047133;28;20919;-52
2022/12/19 03:22:54;;;;;;;10.50;8.33;;;;;19.50;100688.00;;;;2055579;28;20212;-51
2022/12/19 03:23:54;;;;;;;8.57;7.67;;;;;19.50;100696.00;;;;2071072;28;20245;-50
2022/12/19 03:24:54;;;;;;;8.70;7.80;;;;;19.60;100698.00;;;;2060016;28;25083;-50
2022/12/19 03:25:56;;;;;;;8.57;7.67;;;;;19.60;100697.00;;;;2061398;28;21186;-51
2022/12/19 03:27:22;;;;;;;8.02;7.22;;;;;19.60;100694.00;;;;2070778;28;20256;-51
2022/12/19 03:28:27;;;;;;;9.18;8.27;;;;;19.60;100692.00;;;;2051244;28;20206;-52
2022/12/19 03:29:38;;;;;;;8.55;7.25;;;;;19.60;100692.00;;;;2049976;28;20792;-52
2022/12/19 03:30:39;;;;;;;8.63;7.70;;;;;19.50;100684.00;;;;2055111;28;20224;-51
2022/12/19 03:31:40;;;;;;;8.73;7.85;;;;;19.50;100683.00;;;;2070393;28;20241;-52
2022/12/19 03:32:41;;;;;;;9.40;8.40;;;;;19.50;100697.00;;;;2060520;28;20226;-52
2022/12/19 03:33:41;;;;;;;8.77;7.83;;;;;19.50;100689.00;;;;2042411;28;20217;-50
2022/12/19 03:34:43;;;;;;;8.80;7.90;;;;;19.40;100692.00;;;;2037947;29;20513;-51
2022/12/19 03:35:44;;;;;;;8.93;8.02;;;;;19.50;100688.00;;;;2048248;28;20767;-52
2022/12/19 03:36:56;;;;;;;8.60;7.70;;;;;19.50;100683.00;;;;2059745;28;20226;-52
2022/12/19 03:37:56;;;;;;;9.75;8.35;;;;;19.50;100684.00;;;;2047748;28;20705;-53
2022/12/19 03:38:57;;;;;;;7.97;7.23;;;;;19.50;100682.00;;;;2041699;29;20217;-52
2022/12/19 03:39:58;;;;;;;9.17;8.20;;;;;19.40;100680.00;;;;2044566;29;20307;-52
2022/12/19 03:40:59;;;;;;;8.93;7.82;;;;;19.50;100691.00;;;;2045971;28;20220;-51
2022/12/19 03:43:18;;;;;;;8.48;7.57;;;;;19.50;100688.00;;;;2064778;28;20675;-52
2022/12/19 03:44:19;;;;;;;8.53;7.63;;;;;19.50;100681.00;;;;2062331;28;20203;-51
2022/12/19 03:45:40;;;;;;;9.80;8.27;;;;;19.50;100683.00;;;;2046198;28;20209;-50
2022/12/19 03:46:42;;;;;;;7.60;6.88;;;;;19.50;100683.00;;;;2056433;28;20227;-51
2022/12/19 03:47:47;;;;;;;9.77;8.40;;;;;19.50;100644.00;;;;2056518;28;20805;-50
2022/12/19 03:48:49;;;;;;;8.65;7.65;;;;;19.50;100690.00;;;;2046442;28;20234;-50
2022/12/19 03:49:50;;;;;;;8.30;7.50;;;;;19.50;100676.00;;;;2046913;28;20212;-51
2022/12/19 03:51:03;;;;;;;9.60;8.07;;;;;19.40;100676.00;;;;2046006;28;20216;-51
2022/12/19 03:52:22;;;;;;;8.93;8.02;;;;;19.40;100679.00;;;;2048229;28;20227;-52
2022/12/19 03:53:53;;;;;;;9.23;8.27;;;;;19.50;100665.00;;;;2057135;28;20218;-52
2022/12/19 03:55:14;;;;;;;8.48;7.63;;;;;19.50;100665.00;;;;2067964;28;20214;-52
2022/12/19 03:56:39;;;;;;;8.60;7.75;;;;;19.40;100670.00;;;;2054774;28;20213;-52
2022/12/19 03:58:00;;;;;;;8.63;7.15;;;;;19.40;100661.00;;;;2059299;28;20588;-53
2022/12/19 03:59:06;;;;;;;8.55;7.75;;;;;19.40;100674.00;;;;2046659;28;20284;-52
2022/12/19 04:00:08;;;;;;;9.50;8.50;;;;;19.40;100655.00;;;;2047922;28;20227;-52
2022/12/19 04:01:08;;;;;;;9.10;7.78;;;;;19.50;100665.00;;;;2046906;28;20643;-52
2022/12/19 04:02:09;;;;;;;8.47;7.60;;;;;19.50;100661.00;;;;2052984;28;20223;-52
2022/12/19 04:03:09;;;;;;;9.13;8.23;;;;;19.40;100655.00;;;;2054156;28;20667;-52
2022/12/19 04:04:09;;;;;;;8.27;7.47;;;;;19.40;100659.00;;;;2045967;28;20211;-52
2022/12/19 04:05:16;;;;;;;9.80;8.70;;;;;19.40;100655.00;;;;2053747;28;20311;-53
2022/12/19 04:06:16;;;;;;;8.93;8.02;;;;;19.40;100661.00;;;;2058701;28;20219;-52
2022/12/19 04:07:16;;;;;;;8.67;7.77;;;;;19.40;100654.00;;;;2061601;28;20305;-51
2022/12/19 04:08:17;;;;;;;8.07;7.00;;;;;19.40;100649.00;;;;2062355;28;20211;-50
2022/12/19 04:09:18;;;;;;;10.97;8.70;;;;;19.40;100655.00;;;;2046378;28;20216;-50
2022/12/19 04:10:20;;;;;;;8.65;7.50;;;;;19.40;100647.00;;;;2054029;28;20338;-52
2022/12/19 04:11:20;;;;;;;8.93;8.02;;;;;19.40;100636.00;;;;2054603;28;20203;-52
2022/12/19 04:12:27;;;;;;;9.37;8.37;;;;;19.40;100650.00;;;;2052667;28;20294;-51
2022/12/19 04:13:50;;;;;;;8.75;7.70;;;;;19.40;100640.00;;;;2061080;28;20227;-51
2022/12/19 04:14:50;;;;;;;7.93;6.85;;;;;19.40;100633.00;;;;2048723;28;20304;-51
2022/12/19 04:16:13;;;;;;;8.40;7.43;;;;;19.40;100639.00;;;;2046106;28;20259;-50
2022/12/19 04:17:22;;;;;;;8.43;7.63;;;;;19.40;100626.00;;;;2056074;28;20215;-52
2022/12/19 04:18:23;;;;;;;7.60;6.80;;;;;19.40;100632.00;;;;2061611;28;20203;-51
2022/12/19 04:19:29;;;;;;;8.87;7.57;;;;;19.40;100641.00;;;;2053938;28;20290;-51
2022/12/19 04:20:30;;;;;;;8.13;7.32;;;;;19.40;100632.00;;;;2062720;28;20242;-50
2022/12/19 04:21:42;;;;;;;8.50;7.50;;;;;19.40;100628.00;;;;2061646;28;20207;-52
2022/12/19 04:22:48;;;;;;;8.25;7.25;;;;;19.40;100634.00;;;;2045801;28;20216;-51
2022/12/19 04:23:56;;;;;;;8.02;7.22;;;;;19.40;100633.00;;;;2047131;28;20286;-52
2022/12/19 04:24:57;;;;;;;9.70;7.97;;;;;19.40;100629.00;;;;2046949;28;20228;-52
2022/12/19 04:25:59;;;;;;;8.37;7.57;;;;;19.40;100617.00;;;;2038075;29;20268;-51
2022/12/19 04:27:00;;;;;;;8.98;8.07;;;;;19.30;100631.00;;;;2046193;28;20219;-51
2022/12/19 04:28:16;;;;;;;8.10;7.30;;;;;19.30;100613.00;;;;2053951;28;20655;-52
2022/12/19 04:29:17;;;;;;;8.23;7.43;;;;;19.30;100616.00;;;;2055076;28;20982;-52
2022/12/19 04:30:17;;;;;;;9.50;8.10;;;;;19.30;100625.00;;;;2061554;28;20242;-52
2022/12/19 04:31:17;;;;;;;8.30;7.50;;;;;19.30;100620.00;;;;2053481;28;20588;-52
2022/12/19 04:32:18;;;;;;;8.13;7.33;;;;;19.30;100616.00;;;;2043124;28;20212;-51
2022/12/19 04:33:18;;;;;;;8.53;7.57;;;;;19.30;100623.00;;;;2045792;28;20222;-51
2022/12/19 04:34:19;;;;;;;8.80;7.90;;;;;19.30;100622.00;;;;2052843;28;20250;-51
2022/12/19 04:35:20;;;;;;;8.43;7.60;;;;;19.30;100616.00;;;;2061603;28;20246;-52
2022/12/19 04:36:20;;;;;;;9.43;8.23;;;;;19.30;100613.00;;;;2061598;28;20273;-52
2022/12/19 04:37:20;;;;;;;8.50;7.60;;;;;19.40;100621.00;;;;2060597;28;20274;-51
2022/12/19 04:38:21;;;;;;;8.20;7.33;;;;;19.40;100615.00;;;;2045090;28;20271;-51
2022/12/19 04:39:21;;;;;;;8.93;7.87;;;;;19.30;100622.00;;;;2037318;29;20224;-51
2022/12/19 04:40:21;;;;;;;8.67;7.77;;;;;19.30;100627.00;;;;2054170;28;20211;-52
2022/12/19 04:41:22;;;;;;;9.77;7.70;;;;;19.30;100624.00;;;;2061031;28;20301;-51
2022/12/19 04:42:22;;;;;;;8.33;7.30;;;;;19.30;100612.00;;;;2051503;28;20293;-53
2022/12/19 04:43:22;;;;;;;8.57;7.73;;;;;19.30;100620.00;;;;2062183;28;20215;-51
2022/12/19 04:44:23;;;;;;;7.87;7.17;;;;;19.30;100622.00;;;;2061435;28;20310;-52
2022/12/19 04:45:23;;;;;;;7.73;7.00;;;;;19.30;100590.00;;;;2062471;28;20219;-52
2022/12/19 04:46:24;;;;;;;8.30;7.50;;;;;19.30;100621.00;;;;2062264;28;20214;-52
2022/12/19 04:47:24;;;;;;;8.53;7.67;;;;;19.20;100625.00;;;;2062528;28;20563;-52
2022/12/19 04:48:24;;;;;;;8.67;7.50;;;;;19.30;100610.00;;;;2065513;28;20232;-51
2022/12/19 04:49:25;;;;;;;8.07;7.17;;;;;19.30;100623.00;;;;2070413;28;20218;-52
2022/12/19 04:50:25;;;;;;;8.43;7.20;;;;;19.30;100626.00;;;;2070368;28;20218;-52
2022/12/19 04:51:26;;;;;;;8.10;7.30;;;;;19.30;100619.00;;;;2070605;28;20240;-53
2022/12/19 04:52:26;;;;;;;7.23;6.53;;;;;19.30;100621.00;;;;2069652;28;20215;-53
2022/12/19 04:53:26;;;;;;;8.37;7.30;;;;;19.30;100622.00;;;;2070350;28;20219;-52
2022/12/19 04:54:27;;;;;;;8.07;7.27;;;;;19.30;100612.00;;;;2070350;28;20238;-51
2022/12/19 04:55:27;;;;;;;8.40;7.10;;;;;19.30;100610.00;;;;2059571;28;20264;-51
2022/12/19 04:56:27;;;;;;;7.80;7.00;;;;;19.30;100619.00;;;;2062628;28;20222;-51
2022/12/19 04:57:29;;;;;;;9.40;8.43;;;;;19.30;100623.00;;;;2062660;28;20580;-51
2022/12/19 04:58:29;;;;;;;8.10;6.80;;;;;19.20;100615.00;;;;2067125;28;20222;-52
2022/12/19 04:59:30;;;;;;;8.27;7.47;;;;;19.30;100613.00;;;;2065139;28;21156;-52
2022/12/19 05:00:30;;;;;;;8.30;7.50;;;;;19.30;100605.00;;;;2062361;28;20281;-52
2022/12/19 05:01:31;;;;;;;8.20;7.40;;;;;19.30;100610.00;;;;2062686;28;20458;-53
2022/12/19 05:02:31;;;;;;;8.13;7.33;;;;;19.30;100622.00;;;;2065783;28;20210;-50
2022/12/19 05:03:32;;;;;;;8.23;7.43;;;;;19.30;100607.00;;;;2070172;28;20305;-52
2022/12/19 05:04:32;;;;;;;8.43;7.27;;;;;19.30;100607.00;;;;2070322;28;20288;-50
2022/12/19 05:05:32;;;;;;;8.53;7.17;;;;;19.30;100603.00;;;;2063672;28;20209;-51
2022/12/19 05:06:33;;;;;;;9.53;7.67;;;;;19.30;100612.00;;;;2062325;28;20238;-52
2022/12/19 05:07:33;;;;;;;8.30;7.50;;;;;19.20;100606.00;;;;2062676;28;20285;-51
2022/12/19 05:08:34;;;;;;;8.33;7.30;;;;;19.20;100608.00;;;;2062539;28;20620;-53
2022/12/19 05:09:34;;;;;;;8.48;7.57;;;;;19.20;100596.00;;;;2062449;28;20225;-52
2022/12/19 05:10:35;;;;;;;8.60;7.80;;;;;19.20;100595.00;;;;2070114;28;20745;-50
2022/12/19 05:11:36;;;;;;;8.40;7.10;;;;;19.20;100599.00;;;;2070318;28;20214;-51
2022/12/19 05:12:36;;;;;;;7.90;7.10;;;;;19.20;100595.00;;;;2069657;28;21020;-52
2022/12/19 05:13:36;;;;;;;7.73;7.00;;;;;19.20;100597.00;;;;2070499;28;20215;-52
2022/12/19 05:14:37;;;;;;;8.40;7.47;;;;;19.20;100591.00;;;;2070386;28;20206;-52
2022/12/19 05:15:37;;;;;;;8.07;7.27;;;;;19.20;100588.00;;;;2070541;28;20564;-52